Meteo Giornale » Osservazioni meteo Stati Uniti (USA) » Berlin

ore: 09:52 - Osservazioni Meteo Berlin
Lat. 44° 34' N Lon. 71° 10' W Alt. 353 metri s.l.m.

sereno America/New_York

7 °C

Sereno

Temp. 24 Ore

-5 °C

13 °C

Nord

0 Km/h

Dew point -2 °C

Umidità 52 %

Visibilità  10 Km

Il sole sorge alle ore 06:28

Il sole tramonta alle ore 18:46

Data e Ora Cielo e Fenomeni T °C DP °C Um. % Pres. hPa Vis. km Vento km/h
Oggi h: 09:52 sereno Sereno 7 -2 52 1034 10 N 0
Oggi h: 08:52 poco_nuvoloso Poco Nuvoloso 3 -1 74 1034 10 N 0
Oggi h: 07:52 coperto Coperto 0 -2 86 1033 10 N 0
Oggi h: 06:52 sereno Sereno -4 -6 85 1033 10 N 0
Oggi h: 05:52 molto_nuvoloso Molto Nuvoloso -2 -4 86 1032 10 N 0
Oggi h: 04:52 coperto Coperto -3 -5 86 1032 10 N 0
Oggi h: 03:52 sereno Sereno -5 -7 85 1031 10 N 0
Oggi h: 02:52 molto_nuvoloso Molto Nuvoloso -4 -6 85 1031 10 N 0
Oggi h: 01:52 sereno Sereno -5 -6 92 1031 10 N 0
Oggi h: 00:52 sereno Sereno -3 -6 79 1030 10 N 0
Ieri h: 23:52 sereno Sereno -3 -5 86 1030 10 N 0
Ieri h: 22:52 sereno Sereno -2 -4 86 1030 10 N 0
Ieri h: 21:52 sereno Sereno -2 -4 86 1029 10 N 0
Ieri h: 20:52 sereno Sereno 1 -3 74 1029 10 N 0
Ieri h: 19:52 sereno Sereno 4 -3 60 1028 10 N 0
Ieri h: 18:52 sereno Sereno 8 -3 45 1027 10 N 5.5
Ieri h: 17:52 sereno Sereno 11 -4 34 1027 10 N/NO 9.3
Ieri h: 16:52 sereno Sereno 12 -4 32 1026 10 N/NO 14.8
Ieri h: 15:52 sereno Sereno 13 -4 30 1026 10 N 22.2
Ieri h: 14:52 sereno Sereno 13 -5 28 1026 10 N 24
Ieri h: 13:52 sereno Sereno 12 -4 32 1026 10 N/NO 16.7
Ieri h: 12:52 poco_nuvoloso Poco Nuvoloso 12 -4 32 1026 10 NO 18.5
Ieri h: 11:52 sereno Sereno 12 -4 32 1027 10 NO 20.3
Ieri h: 10:52 nuvoloso Nuvoloso 11 -3 37 1026 10 N/NO 18.5